sensor_id;sensor_type;location;lat;lon;timestamp;temperature;humidity
12446;DHT22;6287;50.984;7.022;2023-11-21T00:01:05;8.90;99.90
12446;DHT22;6287;50.984;7.022;2023-11-21T00:03:34;9.00;99.90
12446;DHT22;6287;50.984;7.022;2023-11-21T00:06:02;9.00;99.90
12446;DHT22;6287;50.984;7.022;2023-11-21T00:08:28;8.90;99.90
12446;DHT22;6287;50.984;7.022;2023-11-21T00:10:53;9.00;99.90
12446;DHT22;6287;50.984;7.022;2023-11-21T00:13:20;9.00;99.90
12446;DHT22;6287;50.984;7.022;2023-11-21T00:15:48;8.90;99.90
12446;DHT22;6287;50.984;7.022;2023-11-21T00:18:14;8.90;99.90
12446;DHT22;6287;50.984;7.022;2023-11-21T00:20:40;8.90;99.90
12446;DHT22;6287;50.984;7.022;2023-11-21T00:23:05;8.90;99.90
12446;DHT22;6287;50.984;7.022;2023-11-21T00:25:34;8.90;99.90
12446;DHT22;6287;50.984;7.022;2023-11-21T00:28:00;9.00;99.90
12446;DHT22;6287;50.984;7.022;2023-11-21T00:30:29;9.00;99.90
12446;DHT22;6287;50.984;7.022;2023-11-21T00:32:55;8.90;99.90
12446;DHT22;6287;50.984;7.022;2023-11-21T00:35:21;8.90;99.90
12446;DHT22;6287;50.984;7.022;2023-11-21T00:37:46;8.90;99.90
12446;DHT22;6287;50.984;7.022;2023-11-21T00:40:15;8.90;99.90
12446;DHT22;6287;50.984;7.022;2023-11-21T00:42:41;8.90;99.90
12446;DHT22;6287;50.984;7.022;2023-11-21T00:45:10;8.90;99.90
12446;DHT22;6287;50.984;7.022;2023-11-21T00:47:39;8.90;99.90
12446;DHT22;6287;50.984;7.022;2023-11-21T00:50:08;8.80;99.90
12446;DHT22;6287;50.984;7.022;2023-11-21T00:52:33;8.80;99.90
12446;DHT22;6287;50.984;7.022;2023-11-21T00:54:59;8.80;99.90
12446;DHT22;6287;50.984;7.022;2023-11-21T00:57:26;8.80;99.90
12446;DHT22;6287;50.984;7.022;2023-11-21T00:59:51;8.70;99.90
12446;DHT22;6287;50.984;7.022;2023-11-21T01:02:17;8.60;99.90
12446;DHT22;6287;50.984;7.022;2023-11-21T01:04:45;8.60;99.90
12446;DHT22;6287;50.984;7.022;2023-11-21T01:07:10;8.50;99.90
12446;DHT22;6287;50.984;7.022;2023-11-21T01:09:36;8.40;99.90
12446;DHT22;6287;50.984;7.022;2023-11-21T01:12:02;8.40;99.90
12446;DHT22;6287;50.984;7.022;2023-11-21T01:14:27;8.30;99.90
12446;DHT22;6287;50.984;7.022;2023-11-21T01:16:53;8.30;99.90
12446;DHT22;6287;50.984;7.022;2023-11-21T01:19:19;8.20;99.90
12446;DHT22;6287;50.984;7.022;2023-11-21T01:21:44;8.10;99.90
12446;DHT22;6287;50.984;7.022;2023-11-21T01:24:12;8.10;99.90
12446;DHT22;6287;50.984;7.022;2023-11-21T01:26:38;8.00;99.90
12446;DHT22;6287;50.984;7.022;2023-11-21T01:29:06;8.00;99.90
12446;DHT22;6287;50.984;7.022;2023-11-21T01:31:36;8.00;99.90
12446;DHT22;6287;50.984;7.022;2023-11-21T01:34:01;7.90;99.90
12446;DHT22;6287;50.984;7.022;2023-11-21T01:36:33;7.90;99.90
12446;DHT22;6287;50.984;7.022;2023-11-21T01:39:01;7.90;99.90
12446;DHT22;6287;50.984;7.022;2023-11-21T01:41:28;7.90;99.90
12446;DHT22;6287;50.984;7.022;2023-11-21T01:43:56;7.90;99.90
12446;DHT22;6287;50.984;7.022;2023-11-21T01:46:24;7.90;99.90
12446;DHT22;6287;50.984;7.022;2023-11-21T01:48:52;7.90;99.90
12446;DHT22;6287;50.984;7.022;2023-11-21T01:51:21;7.90;99.90
12446;DHT22;6287;50.984;7.022;2023-11-21T01:53:47;7.90;99.90
12446;DHT22;6287;50.984;7.022;2023-11-21T01:56:13;7.80;99.90
12446;DHT22;6287;50.984;7.022;2023-11-21T01:58:45;7.80;99.90
12446;DHT22;6287;50.984;7.022;2023-11-21T02:01:12;7.80;99.90
12446;DHT22;6287;50.984;7.022;2023-11-21T02:03:42;7.70;99.90
12446;DHT22;6287;50.984;7.022;2023-11-21T02:06:10;7.70;99.90
12446;DHT22;6287;50.984;7.022;2023-11-21T02:08:36;7.70;99.90
12446;DHT22;6287;50.984;7.022;2023-11-21T02:11:05;7.60;99.90
12446;DHT22;6287;50.984;7.022;2023-11-21T02:13:31;7.60;99.90
12446;DHT22;6287;50.984;7.022;2023-11-21T02:15:58;7.60;99.90
12446;DHT22;6287;50.984;7.022;2023-11-21T02:18:25;7.50;99.90
12446;DHT22;6287;50.984;7.022;2023-11-21T02:20:50;7.50;99.90
12446;DHT22;6287;50.984;7.022;2023-11-21T02:23:23;7.50;99.90
12446;DHT22;6287;50.984;7.022;2023-11-21T02:25:54;7.50;99.90
12446;DHT22;6287;50.984;7.022;2023-11-21T02:28:22;7.40;99.90
12446;DHT22;6287;50.984;7.022;2023-11-21T02:30:56;7.50;99.90
12446;DHT22;6287;50.984;7.022;2023-11-21T02:33:23;7.50;99.90
12446;DHT22;6287;50.984;7.022;2023-11-21T02:35:48;7.50;99.90
12446;DHT22;6287;50.984;7.022;2023-11-21T02:38:17;7.60;99.90
12446;DHT22;6287;50.984;7.022;2023-11-21T02:40:45;7.60;99.90
12446;DHT22;6287;50.984;7.022;2023-11-21T02:43:12;7.60;99.90
12446;DHT22;6287;50.984;7.022;2023-11-21T02:45:38;7.70;99.90
12446;DHT22;6287;50.984;7.022;2023-11-21T02:48:08;7.70;99.90
12446;DHT22;6287;50.984;7.022;2023-11-21T02:50:36;7.70;99.90
12446;DHT22;6287;50.984;7.022;2023-11-21T02:53:03;7.80;99.90
12446;DHT22;6287;50.984;7.022;2023-11-21T02:55:31;7.80;99.90
12446;DHT22;6287;50.984;7.022;2023-11-21T02:58:00;7.90;99.90
12446;DHT22;6287;50.984;7.022;2023-11-21T03:00:26;7.90;99.90
12446;DHT22;6287;50.984;7.022;2023-11-21T03:02:55;7.90;99.90
12446;DHT22;6287;50.984;7.022;2023-11-21T03:05:23;8.00;99.90
12446;DHT22;6287;50.984;7.022;2023-11-21T03:07:51;8.00;99.90
12446;DHT22;6287;50.984;7.022;2023-11-21T03:10:17;8.10;99.90
12446;DHT22;6287;50.984;7.022;2023-11-21T03:12:45;8.10;99.90
12446;DHT22;6287;50.984;7.022;2023-11-21T03:15:10;8.10;99.90
12446;DHT22;6287;50.984;7.022;2023-11-21T03:17:38;8.10;99.90
12446;DHT22;6287;50.984;7.022;2023-11-21T03:20:05;8.20;99.90
12446;DHT22;6287;50.984;7.022;2023-11-21T03:22:38;8.20;99.90
12446;DHT22;6287;50.984;7.022;2023-11-21T03:25:07;8.20;99.90
12446;DHT22;6287;50.984;7.022;2023-11-21T03:27:36;8.30;99.90
12446;DHT22;6287;50.984;7.022;2023-11-21T03:30:02;8.30;99.90
12446;DHT22;6287;50.984;7.022;2023-11-21T03:32:31;8.30;99.90
12446;DHT22;6287;50.984;7.022;2023-11-21T03:35:01;8.30;99.90
12446;DHT22;6287;50.984;7.022;2023-11-21T03:37:27;8.30;99.90
12446;DHT22;6287;50.984;7.022;2023-11-21T03:39:53;8.30;99.90
12446;DHT22;6287;50.984;7.022;2023-11-21T03:42:23;8.40;99.90
12446;DHT22;6287;50.984;7.022;2023-11-21T03:44:48;8.40;99.90
12446;DHT22;6287;50.984;7.022;2023-11-21T03:47:14;8.40;99.90
12446;DHT22;6287;50.984;7.022;2023-11-21T03:49:40;8.40;99.90
12446;DHT22;6287;50.984;7.022;2023-11-21T03:52:08;8.40;99.90
12446;DHT22;6287;50.984;7.022;2023-11-21T03:54:36;8.40;99.90
12446;DHT22;6287;50.984;7.022;2023-11-21T03:57:04;8.40;99.90
12446;DHT22;6287;50.984;7.022;2023-11-21T03:59:32;8.40;99.90
12446;DHT22;6287;50.984;7.022;2023-11-21T04:01:57;8.40;99.90
12446;DHT22;6287;50.984;7.022;2023-11-21T04:04:23;8.40;99.90
12446;DHT22;6287;50.984;7.022;2023-11-21T04:06:49;8.40;99.90
12446;DHT22;6287;50.984;7.022;2023-11-21T04:09:14;8.50;99.90
12446;DHT22;6287;50.984;7.022;2023-11-21T04:11:40;8.40;99.90
12446;DHT22;6287;50.984;7.022;2023-11-21T04:14:05;8.50;99.90
12446;DHT22;6287;50.984;7.022;2023-11-21T04:16:33;8.50;99.90
12446;DHT22;6287;50.984;7.022;2023-11-21T04:18:59;8.50;99.90
12446;DHT22;6287;50.984;7.022;2023-11-21T04:21:24;8.50;99.90
12446;DHT22;6287;50.984;7.022;2023-11-21T04:23:52;8.50;99.90
12446;DHT22;6287;50.984;7.022;2023-11-21T04:26:18;8.50;99.90
12446;DHT22;6287;50.984;7.022;2023-11-21T04:28:48;8.40;99.90
12446;DHT22;6287;50.984;7.022;2023-11-21T04:31:13;8.50;99.90
12446;DHT22;6287;50.984;7.022;2023-11-21T04:33:41;8.50;99.90
12446;DHT22;6287;50.984;7.022;2023-11-21T04:36:07;8.50;99.90
12446;DHT22;6287;50.984;7.022;2023-11-21T04:38:35;8.40;99.90
12446;DHT22;6287;50.984;7.022;2023-11-21T04:41:01;8.50;99.90
12446;DHT22;6287;50.984;7.022;2023-11-21T04:43:29;8.50;99.90
12446;DHT22;6287;50.984;7.022;2023-11-21T04:45:57;8.40;99.90
12446;DHT22;6287;50.984;7.022;2023-11-21T04:48:22;8.40;99.90
12446;DHT22;6287;50.984;7.022;2023-11-21T04:50:50;8.40;99.90
12446;DHT22;6287;50.984;7.022;2023-11-21T04:53:21;8.40;99.90
12446;DHT22;6287;50.984;7.022;2023-11-21T04:55:46;8.40;99.90
12446;DHT22;6287;50.984;7.022;2023-11-21T04:58:14;8.40;99.90
12446;DHT22;6287;50.984;7.022;2023-11-21T05:00:45;8.40;99.90
12446;DHT22;6287;50.984;7.022;2023-11-21T05:03:10;8.40;99.90
12446;DHT22;6287;50.984;7.022;2023-11-21T05:05:36;8.40;99.90
12446;DHT22;6287;50.984;7.022;2023-11-21T05:08:06;8.40;99.90
12446;DHT22;6287;50.984;7.022;2023-11-21T05:10:36;8.30;99.90
12446;DHT22;6287;50.984;7.022;2023-11-21T05:13:07;8.30;99.90
12446;DHT22;6287;50.984;7.022;2023-11-21T05:15:37;8.30;99.90
12446;DHT22;6287;50.984;7.022;2023-11-21T05:18:09;8.30;99.90
12446;DHT22;6287;50.984;7.022;2023-11-21T05:20:35;8.30;99.90
12446;DHT22;6287;50.984;7.022;2023-11-21T05:23:01;8.30;99.90
12446;DHT22;6287;50.984;7.022;2023-11-21T05:25:27;8.30;99.90
12446;DHT22;6287;50.984;7.022;2023-11-21T05:27:52;8.30;99.90
12446;DHT22;6287;50.984;7.022;2023-11-21T05:30:22;8.30;99.90
12446;DHT22;6287;50.984;7.022;2023-11-21T05:32:48;8.30;99.90
12446;DHT22;6287;50.984;7.022;2023-11-21T05:35:17;8.20;99.90
12446;DHT22;6287;50.984;7.022;2023-11-21T05:37:43;8.20;99.90
12446;DHT22;6287;50.984;7.022;2023-11-21T05:40:14;8.20;99.90
12446;DHT22;6287;50.984;7.022;2023-11-21T05:42:40;8.20;99.90
12446;DHT22;6287;50.984;7.022;2023-11-21T05:45:07;8.20;99.90
12446;DHT22;6287;50.984;7.022;2023-11-21T05:47:43;8.20;99.90
12446;DHT22;6287;50.984;7.022;2023-11-21T05:50:15;8.20;99.90
12446;DHT22;6287;50.984;7.022;2023-11-21T05:52:45;8.20;99.90
12446;DHT22;6287;50.984;7.022;2023-11-21T05:55:11;8.20;99.90
12446;DHT22;6287;50.984;7.022;2023-11-21T05:57:41;8.20;99.90
12446;DHT22;6287;50.984;7.022;2023-11-21T06:00:09;8.30;99.90
12446;DHT22;6287;50.984;7.022;2023-11-21T06:02:54;8.30;99.90
12446;DHT22;6287;50.984;7.022;2023-11-21T06:05:22;8.30;99.90
12446;DHT22;6287;50.984;7.022;2023-11-21T06:07:49;8.30;99.90
12446;DHT22;6287;50.984;7.022;2023-11-21T06:10:17;8.30;99.90
12446;DHT22;6287;50.984;7.022;2023-11-21T06:12:45;8.30;99.90
12446;DHT22;6287;50.984;7.022;2023-11-21T06:15:13;8.30;99.90
12446;DHT22;6287;50.984;7.022;2023-11-21T06:17:44;8.30;99.90
12446;DHT22;6287;50.984;7.022;2023-11-21T06:20:11;8.30;99.90
12446;DHT22;6287;50.984;7.022;2023-11-21T06:22:41;8.40;99.90
12446;DHT22;6287;50.984;7.022;2023-11-21T06:25:08;8.40;99.90
12446;DHT22;6287;50.984;7.022;2023-11-21T06:27:38;8.40;99.90
12446;DHT22;6287;50.984;7.022;2023-11-21T06:30:06;8.40;99.90
12446;DHT22;6287;50.984;7.022;2023-11-21T06:32:38;8.40;99.90
12446;DHT22;6287;50.984;7.022;2023-11-21T06:35:05;8.40;99.90
12446;DHT22;6287;50.984;7.022;2023-11-21T06:37:32;8.40;99.90
12446;DHT22;6287;50.984;7.022;2023-11-21T06:39:59;8.50;99.90
12446;DHT22;6287;50.984;7.022;2023-11-21T06:42:25;8.50;99.90
12446;DHT22;6287;50.984;7.022;2023-11-21T06:44:51;8.50;99.90
12446;DHT22;6287;50.984;7.022;2023-11-21T06:47:19;8.50;99.90
12446;DHT22;6287;50.984;7.022;2023-11-21T06:49:51;8.50;99.90
12446;DHT22;6287;50.984;7.022;2023-11-21T06:52:22;8.50;99.90
12446;DHT22;6287;50.984;7.022;2023-11-21T06:54:50;8.60;99.90
12446;DHT22;6287;50.984;7.022;2023-11-21T06:57:16;8.50;99.90
12446;DHT22;6287;50.984;7.022;2023-11-21T06:59:41;8.60;99.90
12446;DHT22;6287;50.984;7.022;2023-11-21T07:02:07;8.60;99.90
12446;DHT22;6287;50.984;7.022;2023-11-21T07:04:35;8.60;99.90
12446;DHT22;6287;50.984;7.022;2023-11-21T07:07:02;8.60;99.90
12446;DHT22;6287;50.984;7.022;2023-11-21T07:09:28;8.60;99.90
12446;DHT22;6287;50.984;7.022;2023-11-21T07:11:53;8.60;99.90
12446;DHT22;6287;50.984;7.022;2023-11-21T07:14:19;8.60;99.90
12446;DHT22;6287;50.984;7.022;2023-11-21T07:16:47;8.70;99.90
12446;DHT22;6287;50.984;7.022;2023-11-21T07:19:15;8.80;99.90
12446;DHT22;6287;50.984;7.022;2023-11-21T07:21:41;8.80;99.90
12446;DHT22;6287;50.984;7.022;2023-11-21T07:24:07;8.80;99.90
12446;DHT22;6287;50.984;7.022;2023-11-21T07:26:34;8.80;99.90
12446;DHT22;6287;50.984;7.022;2023-11-21T07:29:02;8.80;99.90
12446;DHT22;6287;50.984;7.022;2023-11-21T07:31:29;8.80;99.90
12446;DHT22;6287;50.984;7.022;2023-11-21T07:33:57;8.90;99.90
12446;DHT22;6287;50.984;7.022;2023-11-21T07:36:23;8.90;99.90
12446;DHT22;6287;50.984;7.022;2023-11-21T07:38:49;8.90;99.90
12446;DHT22;6287;50.984;7.022;2023-11-21T07:41:16;8.90;99.90
12446;DHT22;6287;50.984;7.022;2023-11-21T07:43:44;8.90;99.90
12446;DHT22;6287;50.984;7.022;2023-11-21T07:46:11;9.00;99.90
12446;DHT22;6287;50.984;7.022;2023-11-21T07:48:40;9.00;99.90
12446;DHT22;6287;50.984;7.022;2023-11-21T07:51:07;9.00;99.90
12446;DHT22;6287;50.984;7.022;2023-11-21T07:53:34;9.10;99.90
12446;DHT22;6287;50.984;7.022;2023-11-21T07:56:08;9.10;99.90
12446;DHT22;6287;50.984;7.022;2023-11-21T07:58:34;9.10;99.90
12446;DHT22;6287;50.984;7.022;2023-11-21T08:01:01;9.20;99.90
12446;DHT22;6287;50.984;7.022;2023-11-21T08:03:30;9.20;99.90
12446;DHT22;6287;50.984;7.022;2023-11-21T08:06:01;9.20;99.90
12446;DHT22;6287;50.984;7.022;2023-11-21T08:08:28;9.30;99.90
12446;DHT22;6287;50.984;7.022;2023-11-21T08:10:56;9.30;99.90
12446;DHT22;6287;50.984;7.022;2023-11-21T08:13:27;9.20;99.90
12446;DHT22;6287;50.984;7.022;2023-11-21T08:15:57;9.20;99.90
12446;DHT22;6287;50.984;7.022;2023-11-21T08:18:29;9.30;99.90
12446;DHT22;6287;50.984;7.022;2023-11-21T08:20:57;9.20;99.90
12446;DHT22;6287;50.984;7.022;2023-11-21T08:23:26;9.30;99.90
12446;DHT22;6287;50.984;7.022;2023-11-21T08:25:52;9.30;99.90
12446;DHT22;6287;50.984;7.022;2023-11-21T08:28:20;9.30;99.90
12446;DHT22;6287;50.984;7.022;2023-11-21T08:30:48;9.30;99.90
12446;DHT22;6287;50.984;7.022;2023-11-21T08:33:16;9.30;99.90
12446;DHT22;6287;50.984;7.022;2023-11-21T08:35:42;9.40;99.90
12446;DHT22;6287;50.984;7.022;2023-11-21T08:38:10;9.40;99.90
12446;DHT22;6287;50.984;7.022;2023-11-21T08:40:38;9.40;99.90
12446;DHT22;6287;50.984;7.022;2023-11-21T08:43:06;9.50;99.90
12446;DHT22;6287;50.984;7.022;2023-11-21T08:45:33;9.50;99.90
12446;DHT22;6287;50.984;7.022;2023-11-21T08:48:04;9.50;99.90
12446;DHT22;6287;50.984;7.022;2023-11-21T08:50:33;9.50;99.90
12446;DHT22;6287;50.984;7.022;2023-11-21T08:53:01;9.50;99.90
12446;DHT22;6287;50.984;7.022;2023-11-21T08:55:26;9.60;99.90
12446;DHT22;6287;50.984;7.022;2023-11-21T08:57:53;9.70;99.90
12446;DHT22;6287;50.984;7.022;2023-11-21T09:00:18;9.70;99.90
12446;DHT22;6287;50.984;7.022;2023-11-21T09:02:44;9.70;99.90
12446;DHT22;6287;50.984;7.022;2023-11-21T09:05:15;9.70;99.90
12446;DHT22;6287;50.984;7.022;2023-11-21T09:07:44;9.80;99.90
12446;DHT22;6287;50.984;7.022;2023-11-21T09:10:13;9.80;99.90
12446;DHT22;6287;50.984;7.022;2023-11-21T09:12:38;9.90;99.90
12446;DHT22;6287;50.984;7.022;2023-11-21T09:15:05;9.90;99.90
12446;DHT22;6287;50.984;7.022;2023-11-21T09:17:35;10.00;99.90
12446;DHT22;6287;50.984;7.022;2023-11-21T09:20:05;10.00;99.90
12446;DHT22;6287;50.984;7.022;2023-11-21T09:22:31;10.10;99.90
12446;DHT22;6287;50.984;7.022;2023-11-21T09:24:57;10.10;99.90
12446;DHT22;6287;50.984;7.022;2023-11-21T09:27:23;10.10;99.90
12446;DHT22;6287;50.984;7.022;2023-11-21T09:29:49;10.10;99.90
12446;DHT22;6287;50.984;7.022;2023-11-21T09:32:15;10.10;99.90
12446;DHT22;6287;50.984;7.022;2023-11-21T09:34:41;10.10;99.90
12446;DHT22;6287;50.984;7.022;2023-11-21T09:37:07;10.10;99.90
12446;DHT22;6287;50.984;7.022;2023-11-21T09:39:34;10.10;99.90
12446;DHT22;6287;50.984;7.022;2023-11-21T09:42:14;10.10;99.90
12446;DHT22;6287;50.984;7.022;2023-11-21T09:45:05;10.20;99.90
12446;DHT22;6287;50.984;7.022;2023-11-21T09:47:38;10.20;99.90
12446;DHT22;6287;50.984;7.022;2023-11-21T09:50:05;10.10;99.90
12446;DHT22;6287;50.984;7.022;2023-11-21T09:52:49;10.20;99.90
12446;DHT22;6287;50.984;7.022;2023-11-21T09:55:18;10.20;99.90
12446;DHT22;6287;50.984;7.022;2023-11-21T09:57:50;10.20;99.90
12446;DHT22;6287;50.984;7.022;2023-11-21T10:00:18;10.20;99.90
12446;DHT22;6287;50.984;7.022;2023-11-21T10:02:48;10.20;99.90
12446;DHT22;6287;50.984;7.022;2023-11-21T10:05:18;10.20;99.90
12446;DHT22;6287;50.984;7.022;2023-11-21T10:07:49;10.20;99.90
12446;DHT22;6287;50.984;7.022;2023-11-21T10:10:19;10.20;99.90
12446;DHT22;6287;50.984;7.022;2023-11-21T10:12:49;10.30;99.90
12446;DHT22;6287;50.984;7.022;2023-11-21T10:15:19;10.30;99.90
12446;DHT22;6287;50.984;7.022;2023-11-21T10:17:47;10.30;99.90
12446;DHT22;6287;50.984;7.022;2023-11-21T10:20:14;10.30;99.90
12446;DHT22;6287;50.984;7.022;2023-11-21T10:22:43;10.40;99.90
12446;DHT22;6287;50.984;7.022;2023-11-21T10:25:15;10.40;99.90
12446;DHT22;6287;50.984;7.022;2023-11-21T10:27:47;10.40;99.90
12446;DHT22;6287;50.984;7.022;2023-11-21T10:30:15;10.40;99.90
12446;DHT22;6287;50.984;7.022;2023-11-21T10:32:43;10.50;99.90
12446;DHT22;6287;50.984;7.022;2023-11-21T10:35:12;10.50;99.90
12446;DHT22;6287;50.984;7.022;2023-11-21T10:37:40;10.50;99.90
12446;DHT22;6287;50.984;7.022;2023-11-21T10:40:09;10.50;99.90
12446;DHT22;6287;50.984;7.022;2023-11-21T10:42:40;10.50;99.90
12446;DHT22;6287;50.984;7.022;2023-11-21T10:45:11;10.50;99.90
12446;DHT22;6287;50.984;7.022;2023-11-21T10:47:44;10.50;99.90
12446;DHT22;6287;50.984;7.022;2023-11-21T10:50:10;10.50;99.90
12446;DHT22;6287;50.984;7.022;2023-11-21T10:52:40;10.50;99.90
12446;DHT22;6287;50.984;7.022;2023-11-21T10:55:21;10.50;99.90
12446;DHT22;6287;50.984;7.022;2023-11-21T10:57:49;10.50;99.90
12446;DHT22;6287;50.984;7.022;2023-11-21T11:00:17;10.50;99.90
12446;DHT22;6287;50.984;7.022;2023-11-21T11:02:49;10.50;99.90
12446;DHT22;6287;50.984;7.022;2023-11-21T11:05:16;10.50;99.90
12446;DHT22;6287;50.984;7.022;2023-11-21T11:07:44;10.60;99.90
12446;DHT22;6287;50.984;7.022;2023-11-21T11:10:13;10.60;99.90
12446;DHT22;6287;50.984;7.022;2023-11-21T11:12:40;10.60;99.90
12446;DHT22;6287;50.984;7.022;2023-11-21T11:15:07;10.60;99.90
12446;DHT22;6287;50.984;7.022;2023-11-21T11:17:37;10.60;99.90
12446;DHT22;6287;50.984;7.022;2023-11-21T11:20:09;10.70;99.90
12446;DHT22;6287;50.984;7.022;2023-11-21T11:28:07;10.80;99.90
12446;DHT22;6287;50.984;7.022;2023-11-21T11:31:05;10.80;99.90
12446;DHT22;6287;50.984;7.022;2023-11-21T11:33:50;10.90;99.90
12446;DHT22;6287;50.984;7.022;2023-11-21T11:36:34;10.90;99.90
12446;DHT22;6287;50.984;7.022;2023-11-21T11:39:27;11.00;99.90
12446;DHT22;6287;50.984;7.022;2023-11-21T11:41:53;11.00;99.90
12446;DHT22;6287;50.984;7.022;2023-11-21T11:47:27;11.00;99.90
12446;DHT22;6287;50.984;7.022;2023-11-21T11:52:39;11.10;99.90
12446;DHT22;6287;50.984;7.022;2023-11-21T11:55:07;11.20;99.90
12446;DHT22;6287;50.984;7.022;2023-11-21T11:57:35;11.30;99.90
12446;DHT22;6287;50.984;7.022;2023-11-21T12:00:11;11.40;99.90
12446;DHT22;6287;50.984;7.022;2023-11-21T12:02:42;11.40;99.90
12446;DHT22;6287;50.984;7.022;2023-11-21T12:05:22;11.40;99.90
12446;DHT22;6287;50.984;7.022;2023-11-21T12:07:53;11.40;99.90
12446;DHT22;6287;50.984;7.022;2023-11-21T12:10:24;11.50;99.90
12446;DHT22;6287;50.984;7.022;2023-11-21T12:13:19;11.50;99.90
12446;DHT22;6287;50.984;7.022;2023-11-21T12:15:50;11.60;99.90
12446;DHT22;6287;50.984;7.022;2023-11-21T12:18:20;11.50;99.90
12446;DHT22;6287;50.984;7.022;2023-11-21T12:20:46;11.60;99.90
12446;DHT22;6287;50.984;7.022;2023-11-21T12:23:14;11.50;99.90
12446;DHT22;6287;50.984;7.022;2023-11-21T12:25:40;11.50;99.90
12446;DHT22;6287;50.984;7.022;2023-11-21T12:28:09;11.50;99.90
12446;DHT22;6287;50.984;7.022;2023-11-21T12:30:37;11.40;99.90
12446;DHT22;6287;50.984;7.022;2023-11-21T12:33:03;11.50;99.90
12446;DHT22;6287;50.984;7.022;2023-11-21T12:35:31;11.50;99.90
12446;DHT22;6287;50.984;7.022;2023-11-21T12:37:59;11.70;99.90
12446;DHT22;6287;50.984;7.022;2023-11-21T12:40:28;11.80;99.90
12446;DHT22;6287;50.984;7.022;2023-11-21T12:42:58;11.80;99.90
12446;DHT22;6287;50.984;7.022;2023-11-21T12:45:25;11.90;99.90
12446;DHT22;6287;50.984;7.022;2023-11-21T12:48:01;11.90;99.90
12446;DHT22;6287;50.984;7.022;2023-11-21T12:50:30;11.90;99.90
12446;DHT22;6287;50.984;7.022;2023-11-21T12:53:13;11.90;99.90
12446;DHT22;6287;50.984;7.022;2023-11-21T12:55:44;11.80;99.90
12446;DHT22;6287;50.984;7.022;2023-11-21T12:58:16;11.80;99.90
12446;DHT22;6287;50.984;7.022;2023-11-21T13:00:47;11.70;99.90
12446;DHT22;6287;50.984;7.022;2023-11-21T13:03:14;11.70;99.90
12446;DHT22;6287;50.984;7.022;2023-11-21T13:05:46;11.70;99.90
12446;DHT22;6287;50.984;7.022;2023-11-21T13:08:16;11.70;99.90
12446;DHT22;6287;50.984;7.022;2023-11-21T13:10:45;11.80;99.90
12446;DHT22;6287;50.984;7.022;2023-11-21T13:13:14;11.80;99.90
12446;DHT22;6287;50.984;7.022;2023-11-21T13:15:59;11.80;99.90
12446;DHT22;6287;50.984;7.022;2023-11-21T13:18:33;11.80;99.90
12446;DHT22;6287;50.984;7.022;2023-11-21T13:21:03;11.80;99.90
12446;DHT22;6287;50.984;7.022;2023-11-21T13:23:38;11.90;99.90
12446;DHT22;6287;50.984;7.022;2023-11-21T13:26:06;11.80;99.90
12446;DHT22;6287;50.984;7.022;2023-11-21T13:28:34;11.80;99.90
12446;DHT22;6287;50.984;7.022;2023-11-21T13:31:04;11.80;99.90
12446;DHT22;6287;50.984;7.022;2023-11-21T13:33:50;11.80;99.90
12446;DHT22;6287;50.984;7.022;2023-11-21T13:36:25;11.80;99.90
12446;DHT22;6287;50.984;7.022;2023-11-21T13:38:51;11.70;99.90
12446;DHT22;6287;50.984;7.022;2023-11-21T13:41:22;11.70;99.90
12446;DHT22;6287;50.984;7.022;2023-11-21T13:43:58;11.70;99.90
12446;DHT22;6287;50.984;7.022;2023-11-21T13:46:41;11.70;99.90
12446;DHT22;6287;50.984;7.022;2023-11-21T13:49:10;11.70;99.90
12446;DHT22;6287;50.984;7.022;2023-11-21T13:51:36;11.70;99.90
12446;DHT22;6287;50.984;7.022;2023-11-21T13:54:13;11.60;99.90
12446;DHT22;6287;50.984;7.022;2023-11-21T13:56:41;11.60;99.90
12446;DHT22;6287;50.984;7.022;2023-11-21T13:59:08;11.50;99.90
12446;DHT22;6287;50.984;7.022;2023-11-21T14:01:49;11.50;99.90
12446;DHT22;6287;50.984;7.022;2023-11-21T14:04:21;11.50;99.90
12446;DHT22;6287;50.984;7.022;2023-11-21T14:06:56;11.50;99.90
12446;DHT22;6287;50.984;7.022;2023-11-21T14:09:26;11.50;99.90
12446;DHT22;6287;50.984;7.022;2023-11-21T14:11:58;11.40;99.90
12446;DHT22;6287;50.984;7.022;2023-11-21T14:14:28;11.30;99.90
12446;DHT22;6287;50.984;7.022;2023-11-21T14:16:54;11.30;99.90
12446;DHT22;6287;50.984;7.022;2023-11-21T14:19:21;11.30;99.90
12446;DHT22;6287;50.984;7.022;2023-11-21T14:21:53;11.30;99.90
12446;DHT22;6287;50.984;7.022;2023-11-21T14:24:21;11.40;99.90
12446;DHT22;6287;50.984;7.022;2023-11-21T14:26:51;11.30;99.90
12446;DHT22;6287;50.984;7.022;2023-11-21T14:29:20;11.30;99.90
12446;DHT22;6287;50.984;7.022;2023-11-21T14:31:46;11.30;99.90
12446;DHT22;6287;50.984;7.022;2023-11-21T14:34:15;11.30;99.90
12446;DHT22;6287;50.984;7.022;2023-11-21T14:36:43;11.30;99.90
12446;DHT22;6287;50.984;7.022;2023-11-21T14:39:10;11.30;99.90
12446;DHT22;6287;50.984;7.022;2023-11-21T14:41:50;11.30;99.90
12446;DHT22;6287;50.984;7.022;2023-11-21T14:44:18;11.20;99.90
12446;DHT22;6287;50.984;7.022;2023-11-21T14:46:45;11.30;99.90
12446;DHT22;6287;50.984;7.022;2023-11-21T14:49:12;11.20;99.90
12446;DHT22;6287;50.984;7.022;2023-11-21T14:51:49;11.20;99.90
12446;DHT22;6287;50.984;7.022;2023-11-21T14:54:33;11.20;99.90
12446;DHT22;6287;50.984;7.022;2023-11-21T14:57:09;11.10;99.90
12446;DHT22;6287;50.984;7.022;2023-11-21T14:59:47;11.10;99.90
12446;DHT22;6287;50.984;7.022;2023-11-21T15:02:25;11.00;99.90
12446;DHT22;6287;50.984;7.022;2023-11-21T15:05:10;10.90;99.90
12446;DHT22;6287;50.984;7.022;2023-11-21T15:07:40;10.90;99.90
12446;DHT22;6287;50.984;7.022;2023-11-21T15:10:07;10.80;99.90
12446;DHT22;6287;50.984;7.022;2023-11-21T15:12:40;10.80;99.90
12446;DHT22;6287;50.984;7.022;2023-11-21T15:15:06;10.70;99.90
12446;DHT22;6287;50.984;7.022;2023-11-21T15:17:36;10.70;99.90
12446;DHT22;6287;50.984;7.022;2023-11-21T15:20:02;10.70;99.90
12446;DHT22;6287;50.984;7.022;2023-11-21T15:22:29;10.70;99.90
12446;DHT22;6287;50.984;7.022;2023-11-21T15:24:57;10.70;99.90
12446;DHT22;6287;50.984;7.022;2023-11-21T15:27:23;10.70;99.90
12446;DHT22;6287;50.984;7.022;2023-11-21T15:29:49;10.70;99.90
12446;DHT22;6287;50.984;7.022;2023-11-21T15:32:15;10.60;99.90
12446;DHT22;6287;50.984;7.022;2023-11-21T15:34:41;10.60;99.90
12446;DHT22;6287;50.984;7.022;2023-11-21T15:37:08;10.60;99.90
12446;DHT22;6287;50.984;7.022;2023-11-21T15:39:39;10.60;99.90
12446;DHT22;6287;50.984;7.022;2023-11-21T15:42:04;10.60;99.90
12446;DHT22;6287;50.984;7.022;2023-11-21T15:44:32;10.60;99.90
12446;DHT22;6287;50.984;7.022;2023-11-21T15:46:59;10.50;99.90
12446;DHT22;6287;50.984;7.022;2023-11-21T15:49:24;10.50;99.90
12446;DHT22;6287;50.984;7.022;2023-11-21T15:51:52;10.60;99.90
12446;DHT22;6287;50.984;7.022;2023-11-21T15:54:22;10.50;99.90
12446;DHT22;6287;50.984;7.022;2023-11-21T15:56:48;10.50;99.90
12446;DHT22;6287;50.984;7.022;2023-11-21T15:59:15;10.50;99.90
12446;DHT22;6287;50.984;7.022;2023-11-21T16:01:42;10.50;99.90
12446;DHT22;6287;50.984;7.022;2023-11-21T16:04:14;10.40;99.90
12446;DHT22;6287;50.984;7.022;2023-11-21T16:06:46;10.40;99.90
12446;DHT22;6287;50.984;7.022;2023-11-21T16:09:15;10.40;99.90
12446;DHT22;6287;50.984;7.022;2023-11-21T16:11:51;10.30;99.90
12446;DHT22;6287;50.984;7.022;2023-11-21T16:14:19;10.30;99.90
12446;DHT22;6287;50.984;7.022;2023-11-21T16:16:52;10.30;99.90